sensor_id;sensor_type;location;lat;lon;timestamp;pressure;altitude;pressure_sealevel;temperature;humidity
596;BME280;19946;49.306;11.350;2023-04-25T00:02:57;95676.56;;;5.83;100.00
596;BME280;19946;49.306;11.350;2023-04-25T00:05:59;95681.56;;;5.74;100.00
596;BME280;19946;49.306;11.350;2023-04-25T00:09:04;95674.00;;;5.61;100.00
596;BME280;19946;49.306;11.350;2023-04-25T00:12:07;95670.13;;;5.67;100.00
596;BME280;19946;49.306;11.350;2023-04-25T00:15:08;95646.44;;;5.52;100.00
596;BME280;19946;49.306;11.350;2023-04-25T00:18:09;95704.56;;;5.86;100.00
596;BME280;19946;49.306;11.350;2023-04-25T00:21:11;95659.06;;;5.55;100.00
596;BME280;19946;49.306;11.350;2023-04-25T00:24:12;95700.97;;;5.67;100.00
596;BME280;19946;49.306;11.350;2023-04-25T00:27:12;95709.38;;;5.69;100.00
596;BME280;19946;49.306;11.350;2023-04-25T00:30:13;95714.63;;;5.67;100.00
596;BME280;19946;49.306;11.350;2023-04-25T00:33:14;95713.81;;;5.67;100.00
596;BME280;19946;49.306;11.350;2023-04-25T00:36:14;95709.59;;;5.66;100.00
596;BME280;19946;49.306;11.350;2023-04-25T00:39:14;95705.06;;;5.69;100.00
596;BME280;19946;49.306;11.350;2023-04-25T00:42:15;95700.75;;;5.70;100.00
596;BME280;19946;49.306;11.350;2023-04-25T00:45:17;95681.25;;;5.56;100.00
596;BME280;19946;49.306;11.350;2023-04-25T00:48:17;95698.28;;;5.68;100.00
596;BME280;19946;49.306;11.350;2023-04-25T00:51:19;95688.72;;;5.70;100.00
596;BME280;19946;49.306;11.350;2023-04-25T00:54:20;95702.38;;;5.71;100.00
596;BME280;19946;49.306;11.350;2023-04-25T00:57:21;95692.00;;;5.61;100.00
596;BME280;19946;49.306;11.350;2023-04-25T01:00:21;95678.91;;;5.64;100.00
596;BME280;19946;49.306;11.350;2023-04-25T01:03:22;95681.22;;;5.67;100.00
596;BME280;19946;49.306;11.350;2023-04-25T01:06:22;95654.84;;;5.54;100.00
596;BME280;19946;49.306;11.350;2023-04-25T01:09:22;95676.22;;;5.66;100.00
596;BME280;19946;49.306;11.350;2023-04-25T01:12:24;95680.31;;;5.68;100.00
596;BME280;19946;49.306;11.350;2023-04-25T01:15:24;95675.16;;;5.79;100.00
596;BME280;19946;49.306;11.350;2023-04-25T01:18:24;95676.31;;;5.75;100.00
596;BME280;19946;49.306;11.350;2023-04-25T01:21:25;95669.44;;;5.76;100.00
596;BME280;19946;49.306;11.350;2023-04-25T01:24:28;95655.06;;;5.73;100.00
596;BME280;19946;49.306;11.350;2023-04-25T01:27:29;95663.34;;;5.77;100.00
596;BME280;19946;49.306;11.350;2023-04-25T01:30:31;95669.78;;;5.82;100.00
596;BME280;19946;49.306;11.350;2023-04-25T01:33:31;95673.63;;;5.77;100.00
596;BME280;19946;49.306;11.350;2023-04-25T01:36:32;95677.72;;;5.79;100.00
596;BME280;19946;49.306;11.350;2023-04-25T01:39:32;95670.25;;;5.76;100.00
596;BME280;19946;49.306;11.350;2023-04-25T01:42:34;95668.88;;;5.72;100.00
596;BME280;19946;49.306;11.350;2023-04-25T01:45:35;95660.91;;;5.64;100.00
596;BME280;19946;49.306;11.350;2023-04-25T01:48:36;95677.13;;;5.76;100.00
596;BME280;19946;49.306;11.350;2023-04-25T01:51:37;95668.97;;;5.71;100.00
596;BME280;19946;49.306;11.350;2023-04-25T01:54:37;95668.06;;;5.61;100.00
596;BME280;19946;49.306;11.350;2023-04-25T01:57:38;95648.56;;;5.47;100.00
596;BME280;19946;49.306;11.350;2023-04-25T02:00:38;95689.16;;;5.64;100.00
596;BME280;19946;49.306;11.350;2023-04-25T02:03:40;95689.28;;;5.63;100.00
596;BME280;19946;49.306;11.350;2023-04-25T02:06:47;95686.84;;;5.61;100.00
596;BME280;19946;49.306;11.350;2023-04-25T02:09:49;95671.34;;;5.52;100.00
596;BME280;19946;49.306;11.350;2023-04-25T02:12:50;95680.31;;;5.68;100.00
596;BME280;19946;49.306;11.350;2023-04-25T02:16:12;95676.22;;;5.66;100.00
596;BME280;19946;49.306;11.350;2023-04-25T02:19:13;95678.56;;;5.69;100.00
596;BME280;19946;49.306;11.350;2023-04-25T02:22:14;95661.72;;;5.65;100.00
596;BME280;19946;49.306;11.350;2023-04-25T02:25:14;95673.84;;;5.74;100.00
596;BME280;19946;49.306;11.350;2023-04-25T02:28:16;95656.94;;;5.71;100.00
596;BME280;19946;49.306;11.350;2023-04-25T02:31:16;95649.81;;;5.64;100.00
596;BME280;19946;49.306;11.350;2023-04-25T02:34:19;95656.03;;;5.61;100.00
596;BME280;19946;49.306;11.350;2023-04-25T02:37:20;95668.72;;;5.74;100.00
596;BME280;19946;49.306;11.350;2023-04-25T02:40:20;95670.25;;;5.76;100.00
596;BME280;19946;49.306;11.350;2023-04-25T02:43:20;95655.56;;;5.67;100.00
596;BME280;19946;49.306;11.350;2023-04-25T02:46:22;95651.47;;;5.65;100.00
596;BME280;19946;49.306;11.350;2023-04-25T02:49:22;95640.75;;;5.60;100.00
596;BME280;19946;49.306;11.350;2023-04-25T02:52:22;95621.47;;;5.54;100.00
596;BME280;19946;49.306;11.350;2023-04-25T02:55:31;95639.22;;;5.57;100.00
596;BME280;19946;49.306;11.350;2023-04-25T02:58:34;95637.81;;;5.53;100.00
596;BME280;19946;49.306;11.350;2023-04-25T03:01:36;95634.69;;;5.61;100.00
596;BME280;19946;49.306;11.350;2023-04-25T03:04:36;95638.75;;;5.52;100.00
596;BME280;19946;49.306;11.350;2023-04-25T03:07:36;95627.22;;;5.46;100.00
596;BME280;19946;49.306;11.350;2023-04-25T03:10:38;95637.16;;;5.51;100.00
596;BME280;19946;49.306;11.350;2023-04-25T03:13:41;95631.53;;;5.35;100.00
596;BME280;19946;49.306;11.350;2023-04-25T03:16:43;95632.34;;;5.35;100.00
596;BME280;19946;49.306;11.350;2023-04-25T03:19:43;95602.97;;;5.17;100.00
596;BME280;19946;49.306;11.350;2023-04-25T03:22:44;95634.09;;;5.35;100.00
596;BME280;19946;49.306;11.350;2023-04-25T03:25:45;95631.53;;;5.35;100.00
596;BME280;19946;49.306;11.350;2023-04-25T03:28:45;95639.47;;;5.32;100.00
596;BME280;19946;49.306;11.350;2023-04-25T03:31:46;95614.72;;;5.20;100.00
596;BME280;19946;49.306;11.350;2023-04-25T03:34:47;95626.63;;;5.21;100.00
596;BME280;19946;49.306;11.350;2023-04-25T03:37:47;95627.81;;;5.28;100.00
596;BME280;19946;49.306;11.350;2023-04-25T03:40:54;95621.75;;;5.18;100.00
596;BME280;19946;49.306;11.350;2023-04-25T03:43:59;95621.75;;;5.18;100.00
596;BME280;19946;49.306;11.350;2023-04-25T03:47:01;95621.28;;;5.12;100.00
596;BME280;19946;49.306;11.350;2023-04-25T03:50:01;95612.06;;;5.10;100.00
596;BME280;19946;49.306;11.350;2023-04-25T03:53:03;95613.47;;;5.14;100.00
596;BME280;19946;49.306;11.350;2023-04-25T03:56:11;95596.91;;;5.07;100.00
596;BME280;19946;49.306;11.350;2023-04-25T03:59:13;95601.22;;;5.06;100.00
596;BME280;19946;49.306;11.350;2023-04-25T04:02:13;95614.88;;;5.18;100.00
596;BME280;19946;49.306;11.350;2023-04-25T04:05:15;95604.13;;;5.13;100.00
596;BME280;19946;49.306;11.350;2023-04-25T04:08:21;95618.25;;;5.19;100.00
596;BME280;19946;49.306;11.350;2023-04-25T04:11:22;95598.28;;;5.00;100.00
596;BME280;19946;49.306;11.350;2023-04-25T04:14:22;95604.72;;;5.05;100.00
596;BME280;19946;49.306;11.350;2023-04-25T04:17:24;95620.47;;;5.12;100.00
596;BME280;19946;49.306;11.350;2023-04-25T04:20:25;95625.47;;;5.13;100.00
596;BME280;19946;49.306;11.350;2023-04-25T04:23:26;95620.13;;;5.17;100.00
596;BME280;19946;49.306;11.350;2023-04-25T04:26:28;95605.19;;;5.10;100.00
596;BME280;19946;49.306;11.350;2023-04-25T04:29:41;95629.19;;;5.21;100.00
596;BME280;19946;49.306;11.350;2023-04-25T04:32:48;95622.56;;;5.29;100.00
596;BME280;19946;49.306;11.350;2023-04-25T04:35:50;95622.31;;;5.21;100.00
596;BME280;19946;49.306;11.350;2023-04-25T04:38:52;95583.28;;;5.06;100.00
596;BME280;19946;49.306;11.350;2023-04-25T04:42:07;95627.22;;;5.35;100.00
596;BME280;19946;49.306;11.350;2023-04-25T04:45:28;95620.13;;;5.39;100.00
596;BME280;19946;49.306;11.350;2023-04-25T04:48:44;95598.41;;;5.21;100.00
596;BME280;19946;49.306;11.350;2023-04-25T04:51:54;95640.16;;;5.45;100.00
596;BME280;19946;49.306;11.350;2023-04-25T04:55:24;95623.94;;;5.44;100.00
596;BME280;19946;49.306;11.350;2023-04-25T04:59:02;95633.50;;;5.54;100.00
596;BME280;19946;49.306;11.350;2023-04-25T05:02:16;95626.16;;;5.60;100.00
596;BME280;19946;49.306;11.350;2023-04-25T05:05:39;95636.53;;;5.59;100.00
596;BME280;19946;49.306;11.350;2023-04-25T05:08:59;95621.03;;;5.49;100.00
596;BME280;19946;49.306;11.350;2023-04-25T05:12:18;95611.47;;;5.40;100.00
596;BME280;19946;49.306;11.350;2023-04-25T05:15:31;95616.03;;;5.36;100.00
596;BME280;19946;49.306;11.350;2023-04-25T05:18:49;95635.50;;;5.61;100.00
596;BME280;19946;49.306;11.350;2023-04-25T05:22:22;95589.75;;;5.33;100.00
596;BME280;19946;49.306;11.350;2023-04-25T05:25:34;95615.75;;;5.62;100.00
596;BME280;19946;49.306;11.350;2023-04-25T05:29:04;95624.84;;;5.66;100.00
596;BME280;19946;49.306;11.350;2023-04-25T05:32:19;95617.16;;;5.55;100.00
596;BME280;19946;49.306;11.350;2023-04-25T05:35:21;95621.47;;;5.65;100.00
596;BME280;19946;49.306;11.350;2023-04-25T05:38:23;95636.72;;;5.78;100.00
596;BME280;19946;49.306;11.350;2023-04-25T05:41:41;95613.44;;;5.59;100.00
596;BME280;19946;49.306;11.350;2023-04-25T05:45:17;95635.91;;;5.77;100.00
596;BME280;19946;49.306;11.350;2023-04-25T05:48:28;95639.63;;;5.96;100.00
596;BME280;19946;49.306;11.350;2023-04-25T05:51:52;95634.47;;;5.96;100.00
596;BME280;19946;49.306;11.350;2023-04-25T05:55:04;95612.56;;;5.92;100.00
596;BME280;19946;49.306;11.350;2023-04-25T05:58:07;95620.47;;;6.00;100.00
596;BME280;19946;49.306;11.350;2023-04-25T06:01:07;95637.03;;;6.07;100.00
596;BME280;19946;49.306;11.350;2023-04-25T06:04:09;95612.00;;;6.41;100.00
596;BME280;19946;49.306;11.350;2023-04-25T06:07:09;95637.22;;;6.47;100.00
596;BME280;19946;49.306;11.350;2023-04-25T06:10:10;95622.28;;;6.62;100.00
596;BME280;19946;49.306;11.350;2023-04-25T06:13:12;95589.94;;;6.59;100.00
596;BME280;19946;49.306;11.350;2023-04-25T06:16:12;95613.59;;;6.83;100.00
596;BME280;19946;49.306;11.350;2023-04-25T06:19:13;95628.75;;;6.77;100.00
596;BME280;19946;49.306;11.350;2023-04-25T06:22:13;95624.97;;;6.60;100.00
596;BME280;19946;49.306;11.350;2023-04-25T06:25:15;95609.81;;;6.57;100.00
596;BME280;19946;49.306;11.350;2023-04-25T06:28:15;95610.06;;;6.54;100.00
596;BME280;19946;49.306;11.350;2023-04-25T06:31:17;95635.66;;;6.55;100.00
596;BME280;19946;49.306;11.350;2023-04-25T06:34:19;95641.16;;;6.51;100.00
596;BME280;19946;49.306;11.350;2023-04-25T06:37:19;95638.53;;;6.41;100.00
596;BME280;19946;49.306;11.350;2023-04-25T06:40:20;95613.78;;;6.29;100.00
596;BME280;19946;49.306;11.350;2023-04-25T06:43:20;95611.00;;;6.32;100.00
596;BME280;19946;49.306;11.350;2023-04-25T06:46:35;95628.63;;;6.57;100.00
596;BME280;19946;49.306;11.350;2023-04-25T06:49:38;95641.47;;;6.99;100.00
596;BME280;19946;49.306;11.350;2023-04-25T06:52:39;95610.22;;;6.83;100.00
596;BME280;19946;49.306;11.350;2023-04-25T06:55:40;95596.44;;;6.42;100.00
596;BME280;19946;49.306;11.350;2023-04-25T06:58:50;95619.41;;;6.55;100.00
596;BME280;19946;49.306;11.350;2023-04-25T07:01:58;95638.53;;;6.41;100.00
596;BME280;19946;49.306;11.350;2023-04-25T07:05:00;95606.84;;;6.41;100.00
596;BME280;19946;49.306;11.350;2023-04-25T07:08:00;95627.28;;;6.21;100.00
596;BME280;19946;49.306;11.350;2023-04-25T07:11:01;95625.66;;;6.41;100.00
596;BME280;19946;49.306;11.350;2023-04-25T07:14:02;95604.53;;;6.38;100.00
596;BME280;19946;49.306;11.350;2023-04-25T07:17:03;95650.56;;;6.62;100.00
596;BME280;19946;49.306;11.350;2023-04-25T07:20:06;95646.31;;;6.19;100.00
596;BME280;19946;49.306;11.350;2023-04-25T07:23:07;95653.56;;;6.25;100.00
596;BME280;19946;49.306;11.350;2023-04-25T07:26:07;95640.25;;;6.20;100.00
596;BME280;19946;49.306;11.350;2023-04-25T07:29:08;95659.81;;;6.11;100.00
596;BME280;19946;49.306;11.350;2023-04-25T07:32:09;95657.38;;;5.99;100.00
596;BME280;19946;49.306;11.350;2023-04-25T07:35:12;95630.13;;;5.53;100.00
596;BME280;19946;49.306;11.350;2023-04-25T07:38:12;95638.06;;;5.61;100.00
596;BME280;19946;49.306;11.350;2023-04-25T07:41:13;95657.91;;;5.59;100.00
596;BME280;19946;49.306;11.350;2023-04-25T07:44:14;95656.97;;;5.04;100.00
596;BME280;19946;49.306;11.350;2023-04-25T07:47:15;95686.38;;;5.23;100.00
596;BME280;19946;49.306;11.350;2023-04-25T07:50:16;95688.72;;;5.26;100.00
596;BME280;19946;49.306;11.350;2023-04-25T07:53:16;95664.91;;;5.12;100.00
596;BME280;19946;49.306;11.350;2023-04-25T07:56:32;95673.09;;;5.18;100.00
596;BME280;19946;49.306;11.350;2023-04-25T07:59:32;95693.63;;;5.51;100.00
596;BME280;19946;49.306;11.350;2023-04-25T08:02:35;95703.41;;;5.68;100.00
596;BME280;19946;49.306;11.350;2023-04-25T08:05:36;95698.28;;;5.57;100.00
596;BME280;19946;49.306;11.350;2023-04-25T08:08:39;95707.03;;;5.66;100.00
596;BME280;19946;49.306;11.350;2023-04-25T08:11:40;95671.19;;;5.42;100.00
596;BME280;19946;49.306;11.350;2023-04-25T08:14:43;95695.22;;;5.97;100.00
596;BME280;19946;49.306;11.350;2023-04-25T08:17:45;95664.66;;;5.71;100.00
596;BME280;19946;49.306;11.350;2023-04-25T08:20:45;95706.25;;;6.31;100.00
596;BME280;19946;49.306;11.350;2023-04-25T08:23:47;95686.78;;;6.06;100.00
596;BME280;19946;49.306;11.350;2023-04-25T08:26:56;95713.00;;;5.66;100.00
596;BME280;19946;49.306;11.350;2023-04-25T08:29:59;95700.72;;;5.03;100.00
596;BME280;19946;49.306;11.350;2023-04-25T08:32:59;95740.47;;;5.08;100.00
596;BME280;19946;49.306;11.350;2023-04-25T08:36:22;95742.91;;;4.99;100.00
596;BME280;19946;49.306;11.350;2023-04-25T08:39:23;95746.31;;;4.64;100.00
596;BME280;19946;49.306;11.350;2023-04-25T08:42:57;95749.97;;;4.73;100.00
596;BME280;19946;49.306;11.350;2023-04-25T08:46:00;95740.13;;;4.67;100.00
596;BME280;19946;49.306;11.350;2023-04-25T08:49:20;95769.78;;;5.06;100.00
596;BME280;19946;49.306;11.350;2023-04-25T08:52:22;95757.03;;;4.93;100.00
596;BME280;19946;49.306;11.350;2023-04-25T08:55:26;95748.66;;;4.67;100.00
596;BME280;19946;49.306;11.350;2023-04-25T08:58:31;95774.91;;;4.71;100.00
596;BME280;19946;49.306;11.350;2023-04-25T09:01:32;95771.41;;;4.72;100.00
596;BME280;19946;49.306;11.350;2023-04-25T09:04:35;95770.59;;;5.06;100.00
596;BME280;19946;49.306;11.350;2023-04-25T09:07:37;95779.50;;;5.36;100.00
596;BME280;19946;49.306;11.350;2023-04-25T09:10:38;95773.47;;;5.59;100.00
596;BME280;19946;49.306;11.350;2023-04-25T09:13:40;95744.97;;;6.07;100.00
596;BME280;19946;49.306;11.350;2023-04-25T09:20:14;95757.59;;;5.76;100.00
596;BME280;19946;49.306;11.350;2023-04-25T09:23:16;95755.25;;;5.73;100.00
596;BME280;19946;49.306;11.350;2023-04-25T09:26:20;95732.47;;;6.13;100.00
596;BME280;19946;49.306;11.350;2023-04-25T09:29:29;95748.28;;;6.73;100.00
596;BME280;19946;49.306;11.350;2023-04-25T09:32:29;95770.53;;;6.94;100.00
596;BME280;19946;49.306;11.350;2023-04-25T09:35:36;95756.13;;;7.75;100.00
596;BME280;19946;49.306;11.350;2023-04-25T09:38:43;95768.94;;;8.36;100.00
596;BME280;19946;49.306;11.350;2023-04-25T09:41:53;95777.84;;;8.62;100.00
596;BME280;19946;49.306;11.350;2023-04-25T09:44:55;95784.72;;;7.72;100.00
596;BME280;19946;49.306;11.350;2023-04-25T09:47:56;95763.16;;;8.13;100.00
596;BME280;19946;49.306;11.350;2023-04-25T09:51:09;95747.50;;;8.35;100.00
596;BME280;19946;49.306;11.350;2023-04-25T09:54:10;95751.91;;;8.14;100.00
596;BME280;19946;49.306;11.350;2023-04-25T09:57:20;95784.69;;;7.42;100.00
596;BME280;19946;49.306;11.350;2023-04-25T10:00:21;95763.28;;;7.72;100.00
596;BME280;19946;49.306;11.350;2023-04-25T10:03:23;95768.59;;;8.89;100.00
596;BME280;19946;49.306;11.350;2023-04-25T10:06:48;95757.59;;;8.67;100.00
596;BME280;19946;49.306;11.350;2023-04-25T10:10:12;95735.94;;;7.90;100.00
596;BME280;19946;49.306;11.350;2023-04-25T10:13:12;95749.78;;;8.29;100.00
596;BME280;19946;49.306;11.350;2023-04-25T10:16:15;95765.47;;;8.95;100.00
596;BME280;19946;49.306;11.350;2023-04-25T10:19:35;95764.91;;;9.39;100.00
596;BME280;19946;49.306;11.350;2023-04-25T10:22:37;95768.13;;;9.51;100.00
596;BME280;19946;49.306;11.350;2023-04-25T10:25:39;95769.25;;;9.20;100.00
596;BME280;19946;49.306;11.350;2023-04-25T10:28:59;95745.03;;;9.77;100.00
596;BME280;19946;49.306;11.350;2023-04-25T10:32:01;95765.00;;;9.84;100.00
596;BME280;19946;49.306;11.350;2023-04-25T10:35:19;95733.94;;;9.67;100.00
596;BME280;19946;49.306;11.350;2023-04-25T10:38:25;95749.41;;;9.10;100.00
596;BME280;19946;49.306;11.350;2023-04-25T10:41:27;95760.00;;;8.40;100.00
596;BME280;19946;49.306;11.350;2023-04-25T10:44:29;95753.59;;;8.34;100.00
596;BME280;19946;49.306;11.350;2023-04-25T10:47:36;95748.00;;;8.20;100.00
596;BME280;19946;49.306;11.350;2023-04-25T10:50:43;95768.75;;;8.18;100.00
596;BME280;19946;49.306;11.350;2023-04-25T10:56:59;95770.91;;;8.53;100.00
596;BME280;19946;49.306;11.350;2023-04-25T11:03:17;95765.69;;;9.86;100.00
596;BME280;19946;49.306;11.350;2023-04-25T11:06:23;95748.66;;;9.57;100.00
596;BME280;19946;49.306;11.350;2023-04-25T11:09:27;95758.53;;;10.08;100.00
596;BME280;19946;49.306;11.350;2023-04-25T11:12:30;95728.84;;;10.12;100.00
596;BME280;19946;49.306;11.350;2023-04-25T11:15:31;95746.06;;;9.57;100.00
596;BME280;19946;49.306;11.350;2023-04-25T11:18:31;95730.06;;;9.34;100.00
596;BME280;19946;49.306;11.350;2023-04-25T11:21:33;95732.72;;;9.14;100.00
596;BME280;19946;49.306;11.350;2023-04-25T11:24:35;95763.69;;;9.14;100.00
596;BME280;19946;49.306;11.350;2023-04-25T11:27:49;95742.09;;;8.67;100.00
596;BME280;19946;49.306;11.350;2023-04-25T11:30:50;95757.75;;;8.85;100.00
596;BME280;19946;49.306;11.350;2023-04-25T11:33:53;95756.09;;;8.74;100.00
596;BME280;19946;49.306;11.350;2023-04-25T11:36:53;95763.41;;;8.50;100.00
596;BME280;19946;49.306;11.350;2023-04-25T11:39:54;95759.75;;;8.62;100.00
596;BME280;19946;49.306;11.350;2023-04-25T11:42:54;95736.94;;;8.96;100.00
596;BME280;19946;49.306;11.350;2023-04-25T11:45:55;95726.81;;;9.32;100.00
596;BME280;19946;49.306;11.350;2023-04-25T11:48:55;95719.53;;;9.18;100.00
596;BME280;19946;49.306;11.350;2023-04-25T11:51:56;95738.66;;;9.25;100.00
596;BME280;19946;49.306;11.350;2023-04-25T11:54:56;95742.78;;;9.08;100.00
596;BME280;19946;49.306;11.350;2023-04-25T11:57:59;95775.22;;;9.20;100.00
596;BME280;19946;49.306;11.350;2023-04-25T12:01:00;95777.41;;;9.34;100.00
596;BME280;19946;49.306;11.350;2023-04-25T12:04:18;95776.63;;;10.08;100.00
596;BME280;19946;49.306;11.350;2023-04-25T12:07:18;95758.81;;;9.68;100.00
596;BME280;19946;49.306;11.350;2023-04-25T12:10:24;95769.69;;;9.15;99.11
596;BME280;19946;49.306;11.350;2023-04-25T12:13:26;95782.44;;;8.68;100.00
596;BME280;19946;49.306;11.350;2023-04-25T12:16:28;95789.78;;;8.54;98.24
596;BME280;19946;49.306;11.350;2023-04-25T12:19:33;95798.44;;;8.43;100.00
596;BME280;19946;49.306;11.350;2023-04-25T12:22:34;95777.81;;;8.43;100.00
596;BME280;19946;49.306;11.350;2023-04-25T12:25:39;95769.97;;;8.64;100.00
596;BME280;19946;49.306;11.350;2023-04-25T12:28:45;95781.25;;;8.92;100.00
596;BME280;19946;49.306;11.350;2023-04-25T12:31:45;95793.63;;;9.07;100.00
596;BME280;19946;49.306;11.350;2023-04-25T12:34:46;95806.25;;;8.91;100.00
596;BME280;19946;49.306;11.350;2023-04-25T12:37:47;95778.22;;;8.48;100.00
596;BME280;19946;49.306;11.350;2023-04-25T12:40:47;95789.38;;;8.77;100.00
596;BME280;19946;49.306;11.350;2023-04-25T12:43:47;95802.72;;;9.02;100.00
596;BME280;19946;49.306;11.350;2023-04-25T12:46:48;95784.75;;;9.29;100.00
596;BME280;19946;49.306;11.350;2023-04-25T12:49:48;95800.63;;;9.53;84.85
596;BME280;19946;49.306;11.350;2023-04-25T12:52:48;95773.22;;;9.80;77.14
596;BME280;19946;49.306;11.350;2023-04-25T12:55:49;95804.25;;;9.80;85.81
596;BME280;19946;49.306;11.350;2023-04-25T12:58:49;95803.66;;;9.20;73.30
596;BME280;19946;49.306;11.350;2023-04-25T13:01:49;95818.47;;;8.99;78.42
596;BME280;19946;49.306;11.350;2023-04-25T13:04:50;95803.06;;;8.49;94.42
596;BME280;19946;49.306;11.350;2023-04-25T13:07:51;95822.06;;;8.48;96.42
596;BME280;19946;49.306;11.350;2023-04-25T13:10:51;95799.13;;;8.55;98.66
596;BME280;19946;49.306;11.350;2023-04-25T13:13:52;95818.88;;;8.85;98.53
596;BME280;19946;49.306;11.350;2023-04-25T13:16:52;95833.56;;;8.94;76.83
596;BME280;19946;49.306;11.350;2023-04-25T13:19:53;95833.69;;;8.92;72.90
596;BME280;19946;49.306;11.350;2023-04-25T13:22:53;95826.91;;;8.82;75.55
596;BME280;19946;49.306;11.350;2023-04-25T13:25:54;95822.94;;;8.87;84.79
596;BME280;19946;49.306;11.350;2023-04-25T13:28:55;95833.13;;;8.69;82.52
596;BME280;19946;49.306;11.350;2023-04-25T13:31:55;95849.16;;;8.63;83.49
596;BME280;19946;49.306;11.350;2023-04-25T13:34:56;95843.06;;;8.74;82.98
596;BME280;19946;49.306;11.350;2023-04-25T13:37:56;95813.84;;;9.02;82.51
596;BME280;19946;49.306;11.350;2023-04-25T13:40:56;95833.16;;;9.27;89.42
596;BME280;19946;49.306;11.350;2023-04-25T13:43:57;95813.56;;;9.44;90.31
596;BME280;19946;49.306;11.350;2023-04-25T13:46:57;95860.78;;;9.17;83.37
596;BME280;19946;49.306;11.350;2023-04-25T13:49:58;95865.22;;;8.86;85.85
596;BME280;19946;49.306;11.350;2023-04-25T13:52:58;95835.00;;;8.58;89.39
596;BME280;19946;49.306;11.350;2023-04-25T13:55:58;95852.63;;;8.43;100.00
596;BME280;19946;49.306;11.350;2023-04-25T13:58:58;95876.00;;;8.51;98.17
596;BME280;19946;49.306;11.350;2023-04-25T14:01:59;95839.28;;;8.38;94.86
596;BME280;19946;49.306;11.350;2023-04-25T14:04:59;95820.44;;;8.47;100.00
596;BME280;19946;49.306;11.350;2023-04-25T14:08:00;95824.25;;;8.43;87.70
596;BME280;19946;49.306;11.350;2023-04-25T14:11:00;95840.72;;;8.61;100.00
596;BME280;19946;49.306;11.350;2023-04-25T14:14:00;95868.84;;;8.64;97.97
596;BME280;19946;49.306;11.350;2023-04-25T14:17:01;95857.63;;;8.45;97.64
596;BME280;19946;49.306;11.350;2023-04-25T14:20:01;95878.47;;;8.53;100.00
596;BME280;19946;49.306;11.350;2023-04-25T14:23:01;95862.69;;;8.56;100.00
596;BME280;19946;49.306;11.350;2023-04-25T14:26:03;95859.44;;;8.54;100.00
596;BME280;19946;49.306;11.350;2023-04-25T14:29:04;95861.00;;;8.35;100.00
596;BME280;19946;49.306;11.350;2023-04-25T14:32:06;95902.22;;;8.26;100.00
596;BME280;19946;49.306;11.350;2023-04-25T14:35:06;95883.16;;;7.87;100.00
596;BME280;19946;49.306;11.350;2023-04-25T14:38:07;95886.03;;;7.73;99.78
596;BME280;19946;49.306;11.350;2023-04-25T14:41:08;95874.03;;;7.62;100.00
596;BME280;19946;49.306;11.350;2023-04-25T14:44:09;95886.69;;;7.65;100.00
596;BME280;19946;49.306;11.350;2023-04-25T14:47:09;95869.75;;;7.51;98.57
596;BME280;19946;49.306;11.350;2023-04-25T14:50:10;95900.25;;;7.88;100.00
596;BME280;19946;49.306;11.350;2023-04-25T14:53:10;95878.16;;;7.95;100.00
596;BME280;19946;49.306;11.350;2023-04-25T14:56:11;95893.47;;;8.38;100.00
596;BME280;19946;49.306;11.350;2023-04-25T14:59:12;95893.94;;;8.53;100.00
596;BME280;19946;49.306;11.350;2023-04-25T15:02:12;95893.03;;;8.33;100.00
596;BME280;19946;49.306;11.350;2023-04-25T15:05:13;95901.66;;;8.01;100.00
596;BME280;19946;49.306;11.350;2023-04-25T15:08:14;95931.19;;;8.09;100.00
596;BME280;19946;49.306;11.350;2023-04-25T15:11:14;95924.22;;;7.99;100.00
596;BME280;19946;49.306;11.350;2023-04-25T15:14:16;95935.41;;;8.10;100.00
596;BME280;19946;49.306;11.350;2023-04-25T15:17:17;95926.34;;;7.94;100.00
596;BME280;19946;49.306;11.350;2023-04-25T15:20:17;95917.28;;;7.79;100.00
596;BME280;19946;49.306;11.350;2023-04-25T15:23:18;95935.41;;;7.89;100.00
596;BME280;19946;49.306;11.350;2023-04-25T15:26:19;95869.16;;;7.27;100.00
596;BME280;19946;49.306;11.350;2023-04-25T15:29:19;95956.72;;;7.59;100.00
596;BME280;19946;49.306;11.350;2023-04-25T15:32:20;95934.84;;;7.32;100.00
596;BME280;19946;49.306;11.350;2023-04-25T15:35:20;95933.09;;;7.22;100.00
596;BME280;19946;49.306;11.350;2023-04-25T15:38:21;95960.97;;;7.49;100.00
596;BME280;19946;49.306;11.350;2023-04-25T15:41:21;95971.09;;;7.73;100.00
596;BME280;19946;49.306;11.350;2023-04-25T15:44:21;95968.66;;;7.92;100.00
596;BME280;19946;49.306;11.350;2023-04-25T15:47:22;95918.34;;;7.56;100.00
596;BME280;19946;49.306;11.350;2023-04-25T15:50:23;95965.53;;;7.88;100.00
596;BME280;19946;49.306;11.350;2023-04-25T15:53:23;95963.13;;;7.96;100.00
596;BME280;19946;49.306;11.350;2023-04-25T15:56:24;95929.03;;;7.93;100.00
596;BME280;19946;49.306;11.350;2023-04-25T15:59:24;95926.50;;;8.02;100.00
596;BME280;19946;49.306;11.350;2023-04-25T16:02:24;95934.00;;;8.05;100.00
596;BME280;19946;49.306;11.350;2023-04-25T16:05:25;95938.47;;;8.03;100.00
596;BME280;19946;49.306;11.350;2023-04-25T16:08:25;95922.88;;;7.63;100.00
596;BME280;19946;49.306;11.350;2023-04-25T16:11:29;95954.50;;;7.65;100.00
596;BME280;19946;49.306;11.350;2023-04-25T16:14:29;95956.50;;;7.62;100.00
596;BME280;19946;49.306;11.350;2023-04-25T16:17:30;95978.13;;;7.70;100.00
596;BME280;19946;49.306;11.350;2023-04-25T16:20:32;95965.34;;;7.69;100.00
596;BME280;19946;49.306;11.350;2023-04-25T16:23:32;95934.63;;;7.56;100.00
596;BME280;19946;49.306;11.350;2023-04-25T16:26:33;95975.41;;;7.72;100.00
596;BME280;19946;49.306;11.350;2023-04-25T16:29:33;95944.13;;;7.56;100.00
596;BME280;19946;49.306;11.350;2023-04-25T16:32:34;95984.00;;;8.14;100.00
596;BME280;19946;49.306;11.350;2023-04-25T16:35:35;95972.63;;;7.96;100.00
596;BME280;19946;49.306;11.350;2023-04-25T16:38:35;95960.84;;;7.82;100.00